Time;durP1;ratioP1;P1;durP2;ratioP2;P2;SDS_P1;SDS_P2;PMS_P1;PMS_P2;Temp;Humidity;BMP_temperature;BMP_pressure;BME280_temperature;BME280_humidity;BME280_pressure;Samples;Min_cycle;Max_cycle;Signal;HPM_P1;HPM_P2
2020/12/14 00:01:04;;;;;;;61.45;23.17;;;5.20;99.90;;;;;;6961395;28;20442;-67
2020/12/14 00:04:25;;;;;;;70.68;23.63;;;5.20;99.90;;;;;;6955956;28;20773;-67
2020/12/14 00:07:46;;;;;;;65.18;23.70;;;5.10;99.90;;;;;;6956925;28;20448;-67
2020/12/14 00:11:07;;;;;;;55.22;22.63;;;5.10;99.90;;;;;;6952384;28;20401;-67
2020/12/14 00:14:28;;;;;;;61.58;23.00;;;5.10;99.90;;;;;;6957586;28;20408;-67
2020/12/14 00:17:50;;;;;;;61.30;23.58;;;5.10;99.90;;;;;;6954305;28;20898;-67
2020/12/14 00:21:11;;;;;;;60.88;22.85;;;5.10;99.90;;;;;;6960673;28;20416;-67
2020/12/14 00:24:31;;;;;;;60.80;23.10;;;5.10;99.90;;;;;;6977181;28;20834;-67
2020/12/14 00:27:52;;;;;;;50.60;23.30;;;5.20;99.90;;;;;;6969469;28;20427;-67
2020/12/14 00:31:15;;;;;;;64.50;24.07;;;5.20;99.90;;;;;;6956987;28;20404;-67
2020/12/14 00:34:36;;;;;;;59.35;22.90;;;5.20;99.90;;;;;;6983645;28;20485;-67
2020/12/14 00:37:57;;;;;;;51.53;23.20;;;5.10;99.90;;;;;;6955168;28;20427;-67
2020/12/14 00:41:19;;;;;;;54.70;23.70;;;5.20;99.90;;;;;;6968944;28;20896;-68
2020/12/14 00:44:51;;;;;;;60.03;24.50;;;5.20;99.90;;;;;;6969077;28;20456;-67
2020/12/14 00:48:12;;;;;;;54.03;24.13;;;5.30;99.90;;;;;;6969242;28;20409;-67
2020/12/14 00:51:33;;;;;;;56.17;24.85;;;5.40;99.90;;;;;;6959026;28;20456;-67
2020/12/14 00:54:54;;;;;;;49.58;23.90;;;5.30;99.90;;;;;;6954183;28;20447;-68
2020/12/14 00:58:15;;;;;;;53.90;24.63;;;5.30;99.90;;;;;;6947154;28;20403;-68
2020/12/14 01:01:36;;;;;;;50.10;23.93;;;5.30;99.90;;;;;;6936644;28;20481;-67
2020/12/14 01:04:57;;;;;;;52.55;23.17;;;5.40;99.90;;;;;;6947402;28;20434;-67
2020/12/14 01:08:21;;;;;;;57.67;23.92;;;5.40;99.90;;;;;;6952921;28;20423;-68
2020/12/14 01:11:41;;;;;;;59.05;24.63;;;5.40;99.90;;;;;;6979073;28;20413;-68
2020/12/14 01:15:04;;;;;;;49.00;23.65;;;5.30;99.90;;;;;;6948776;28;20413;-67
2020/12/14 01:18:25;;;;;;;53.10;24.57;;;5.30;99.90;;;;;;6970857;28;20407;-68
2020/12/14 01:21:46;;;;;;;47.77;22.90;;;5.40;99.90;;;;;;6948006;28;21007;-68
2020/12/14 01:25:07;;;;;;;45.28;21.73;;;5.40;99.90;;;;;;6953147;28;20860;-67
2020/12/14 01:28:27;;;;;;;46.65;22.73;;;5.50;99.90;;;;;;6965469;28;20399;-67
2020/12/14 01:31:48;;;;;;;44.93;22.77;;;5.50;99.90;;;;;;6961070;28;20808;-66
2020/12/14 01:35:09;;;;;;;47.75;22.83;;;5.60;99.90;;;;;;6976052;28;21047;-67
2020/12/14 01:38:30;;;;;;;44.78;22.85;;;5.50;99.90;;;;;;6961298;28;20402;-67
2020/12/14 01:41:52;;;;;;;46.40;22.93;;;5.50;99.90;;;;;;6965643;28;20767;-66
2020/12/14 01:45:13;;;;;;;46.90;22.80;;;5.50;99.90;;;;;;6965249;28;20498;-66
2020/12/14 01:48:34;;;;;;;42.35;22.58;;;5.40;99.90;;;;;;6955835;28;20416;-67
2020/12/14 01:51:58;;;;;;;46.30;22.43;;;5.40;99.90;;;;;;6960011;28;20420;-67
2020/12/14 01:55:20;;;;;;;45.40;22.27;;;5.50;99.90;;;;;;6981550;28;20387;-67
2020/12/14 01:58:40;;;;;;;44.53;22.70;;;5.40;99.90;;;;;;6995730;28;20478;-67
2020/12/14 02:02:01;;;;;;;47.55;22.55;;;5.40;99.90;;;;;;6963273;28;20412;-67
2020/12/14 02:05:22;;;;;;;42.28;22.27;;;5.50;99.90;;;;;;6962610;28;20415;-67
2020/12/14 02:08:43;;;;;;;42.83;22.10;;;5.40;99.90;;;;;;6974019;28;20403;-67
2020/12/14 02:12:04;;;;;;;46.07;23.10;;;5.50;99.90;;;;;;6980971;28;20400;-67
2020/12/14 02:15:25;;;;;;;44.90;22.17;;;5.50;99.90;;;;;;6964252;28;20486;-67
2020/12/14 02:18:46;;;;;;;42.20;22.15;;;5.50;99.90;;;;;;6964182;28;20775;-67
2020/12/14 02:22:06;;;;;;;42.83;22.67;;;5.50;99.90;;;;;;6958701;28;20413;-67
2020/12/14 02:25:27;;;;;;;42.03;21.57;;;5.50;99.90;;;;;;6967841;28;20417;-67
2020/12/14 02:28:48;;;;;;;44.40;22.77;;;5.50;99.90;;;;;;6964214;28;20967;-67
2020/12/14 02:32:12;;;;;;;42.53;22.30;;;5.50;99.90;;;;;;6960288;28;20416;-67
2020/12/14 02:35:33;;;;;;;40.20;21.40;;;5.50;99.90;;;;;;6961433;28;20417;-67
2020/12/14 02:38:53;;;;;;;36.80;21.70;;;5.50;99.90;;;;;;6987649;28;20461;-67
2020/12/14 02:42:17;;;;;;;39.50;21.20;;;5.50;99.90;;;;;;6979899;28;20845;-67
2020/12/14 02:45:38;;;;;;;35.38;19.65;;;5.40;99.90;;;;;;6953917;28;20476;-67
2020/12/14 02:48:59;;;;;;;37.97;20.67;;;5.50;99.90;;;;;;6952215;28;20767;-67
2020/12/14 02:52:19;;;;;;;36.20;19.10;;;5.60;99.90;;;;;;6977457;28;20522;-67
2020/12/14 02:55:40;;;;;;;36.30;20.30;;;5.50;99.90;;;;;;6956978;28;20441;-67
2020/12/14 02:59:01;;;;;;;35.03;20.50;;;5.50;99.90;;;;;;6996282;28;20391;-67
2020/12/14 03:02:22;;;;;;;36.53;20.10;;;5.40;99.90;;;;;;6963332;28;20483;-67
2020/12/14 03:05:43;;;;;;;37.30;19.90;;;5.30;99.90;;;;;;6969333;28;20408;-67
2020/12/14 03:09:04;;;;;;;38.92;19.77;;;5.20;99.90;;;;;;6958382;28;20434;-66
2020/12/14 03:12:25;;;;;;;38.65;20.77;;;5.20;99.90;;;;;;6965161;28;20404;-66
2020/12/14 03:15:45;;;;;;;37.88;21.30;;;5.20;99.90;;;;;;6962344;28;20951;-67
2020/12/14 03:19:06;;;;;;;37.90;20.40;;;5.20;99.90;;;;;;6960453;28;20457;-67
2020/12/14 03:22:27;;;;;;;37.93;20.00;;;5.10;99.90;;;;;;6962467;28;20411;-67
2020/12/14 03:25:48;;;;;;;37.90;20.08;;;5.00;99.90;;;;;;6951054;28;20824;-67
2020/12/14 03:29:09;;;;;;;34.90;19.40;;;5.00;99.90;;;;;;6967919;28;20480;-67
2020/12/14 03:32:30;;;;;;;36.15;18.42;;;5.00;99.90;;;;;;6970701;28;20397;-67
2020/12/14 03:35:51;;;;;;;35.17;19.27;;;5.10;99.90;;;;;;6961351;28;20816;-67
2020/12/14 03:39:12;;;;;;;36.27;19.97;;;5.00;99.90;;;;;;6971675;28;20411;-67
2020/12/14 03:42:32;;;;;;;36.15;19.33;;;5.00;99.90;;;;;;6959037;28;20839;-66
2020/12/14 03:45:53;;;;;;;35.40;19.83;;;4.90;99.90;;;;;;6962798;28;20772;-67
2020/12/14 03:49:14;;;;;;;36.83;19.50;;;5.00;99.90;;;;;;6970379;28;20424;-67
2020/12/14 03:52:35;;;;;;;37.33;18.73;;;5.00;99.90;;;;;;6977693;28;20404;-67
2020/12/14 03:55:56;;;;;;;35.20;18.33;;;5.00;99.90;;;;;;6978137;28;20399;-67
2020/12/14 03:59:16;;;;;;;33.30;19.23;;;5.00;99.90;;;;;;6967238;28;20421;-67
2020/12/14 04:02:38;;;;;;;34.40;18.85;;;5.00;99.90;;;;;;6953322;28;20416;-67
2020/12/14 04:05:58;;;;;;;36.60;19.60;;;5.00;99.90;;;;;;6994005;28;20457;-67
2020/12/14 04:09:19;;;;;;;34.53;18.13;;;5.00;99.90;;;;;;6958831;28;20880;-67
2020/12/14 04:12:41;;;;;;;35.13;18.92;;;5.00;99.90;;;;;;6962219;28;20403;-67
2020/12/14 04:16:02;;;;;;;33.17;18.50;;;5.00;99.90;;;;;;6947824;28;20399;-67
2020/12/14 04:19:23;;;;;;;31.90;17.65;;;5.00;99.90;;;;;;6961035;28;20393;-67
2020/12/14 04:22:46;;;;;;;33.40;18.50;;;4.90;99.90;;;;;;6960218;28;20447;-67
2020/12/14 04:26:07;;;;;;;35.67;18.87;;;4.80;99.90;;;;;;6958348;28;20473;-67
2020/12/14 04:29:28;;;;;;;36.43;18.50;;;4.90;99.90;;;;;;6954323;28;20485;-67
2020/12/14 04:32:48;;;;;;;31.70;17.88;;;4.90;99.90;;;;;;6951819;28;20422;-67
2020/12/14 04:36:12;;;;;;;33.83;18.15;;;5.00;99.90;;;;;;6958285;28;21129;-67
2020/12/14 04:39:33;;;;;;;33.05;18.80;;;5.00;99.90;;;;;;6955398;28;20413;-67
2020/12/14 04:42:57;;;;;;;32.70;18.10;;;5.00;99.90;;;;;;6970530;28;20886;-67
2020/12/14 04:46:21;;;;;;;32.45;18.48;;;5.00;99.90;;;;;;6959752;28;20481;-67
2020/12/14 04:49:42;;;;;;;30.70;17.73;;;5.00;99.90;;;;;;6975232;28;20478;-67
2020/12/14 04:53:04;;;;;;;33.10;17.75;;;5.10;99.90;;;;;;6955692;28;20399;-67
2020/12/14 04:56:28;;;;;;;32.55;17.42;;;5.00;99.90;;;;;;6970123;28;20407;-67
2020/12/14 04:59:52;;;;;;;29.77;17.27;;;5.10;99.90;;;;;;6948922;28;20417;-68
2020/12/14 05:03:12;;;;;;;30.57;18.27;;;5.10;99.90;;;;;;6952658;28;20819;-67
2020/12/14 05:06:50;;;;;;;31.75;17.40;;;5.10;99.90;;;;;;6956681;28;20494;-67
2020/12/14 05:10:12;;;;;;;31.95;17.30;;;5.10;99.90;;;;;;6976333;28;20392;-67
2020/12/14 05:13:33;;;;;;;27.07;16.27;;;5.10;99.90;;;;;;6954944;28;20397;-67
2020/12/14 05:16:54;;;;;;;28.85;16.65;;;5.00;99.90;;;;;;6959572;28;20486;-67
2020/12/14 05:20:17;;;;;;;31.77;16.77;;;5.00;99.90;;;;;;6960194;28;20419;-67
2020/12/14 05:23:37;;;;;;;31.73;17.30;;;5.00;99.90;;;;;;6975760;28;20391;-68
2020/12/14 05:27:00;;;;;;;28.55;16.38;;;5.00;99.90;;;;;;6950910;28;20407;-67
2020/12/14 05:30:21;;;;;;;29.63;17.25;;;5.00;99.90;;;;;;6959273;28;20398;-68
2020/12/14 05:33:41;;;;;;;29.75;17.60;;;5.00;99.90;;;;;;6952712;28;20435;-68
2020/12/14 05:37:05;;;;;;;30.00;17.03;;;4.90;99.90;;;;;;6974977;28;20469;-68
2020/12/14 05:40:33;;;;;;;30.40;16.67;;;5.00;99.90;;;;;;6970758;28;20426;-68
2020/12/14 05:43:57;;;;;;;29.50;16.67;;;4.90;99.90;;;;;;6964914;28;20391;-66
2020/12/14 05:47:36;;;;;;;27.58;16.98;;;5.00;99.90;;;;;;6959000;28;20455;-67
2020/12/14 05:51:00;;;;;;;28.65;16.77;;;5.00;99.90;;;;;;6952508;28;20418;-67
2020/12/14 05:54:33;;;;;;;25.73;15.17;;;5.00;99.90;;;;;;6967201;28;20404;-67
2020/12/14 05:58:00;;;;;;;26.95;15.45;;;5.00;99.90;;;;;;6959265;28;20391;-67
2020/12/14 06:01:22;;;;;;;28.20;15.45;;;5.10;99.90;;;;;;6952933;28;20399;-67
2020/12/14 06:04:43;;;;;;;27.60;14.98;;;5.20;99.90;;;;;;6936606;28;20762;-67
2020/12/14 06:08:42;;;;;;;26.55;15.68;;;5.10;99.90;;;;;;6953474;28;20918;-67
2020/12/14 06:12:05;;;;;;;26.63;15.35;;;5.10;99.90;;;;;;6956341;28;20873;-67
2020/12/14 06:15:30;;;;;;;25.55;14.68;;;5.20;99.90;;;;;;6960832;28;20941;-67
2020/12/14 06:18:51;;;;;;;26.05;14.93;;;5.20;99.90;;;;;;6976573;28;20414;-67
2020/12/14 06:22:13;;;;;;;23.13;14.57;;;5.10;99.90;;;;;;6977922;28;20922;-67
2020/12/14 06:25:34;;;;;;;23.75;14.48;;;5.10;99.90;;;;;;6978352;28;20416;-66
2020/12/14 06:29:01;;;;;;;22.50;14.63;;;5.00;99.90;;;;;;6967174;28;20747;-66
2020/12/14 06:32:37;;;;;;;23.00;14.50;;;5.10;99.90;;;;;;6958040;28;20932;-65
2020/12/14 06:36:13;;;;;;;22.52;13.70;;;5.10;99.90;;;;;;6960855;28;20413;-67
2020/12/14 06:39:37;;;;;;;25.98;15.20;;;5.10;99.90;;;;;;6973122;28;20844;-66
2020/12/14 06:42:58;;;;;;;22.45;13.98;;;5.10;99.90;;;;;;6957346;28;20416;-66
2020/12/14 06:46:26;;;;;;;23.10;13.88;;;5.10;99.90;;;;;;6967817;28;20463;-67
2020/12/14 06:49:47;;;;;;;21.77;13.43;;;5.10;99.90;;;;;;6957304;28;20417;-66
2020/12/14 06:53:38;;;;;;;22.83;13.80;;;5.10;99.90;;;;;;6972874;28;20410;-66
2020/12/14 06:57:02;;;;;;;22.67;13.23;;;5.10;99.90;;;;;;6967299;28;20901;-67
2020/12/14 07:00:31;;;;;;;22.10;13.32;;;5.20;99.90;;;;;;6978921;28;20482;-67
2020/12/14 07:03:52;;;;;;;20.20;12.67;;;5.20;99.90;;;;;;6959448;28;20431;-68
2020/12/14 07:07:13;;;;;;;22.20;13.33;;;5.30;99.90;;;;;;6962013;28;20970;-67
2020/12/14 07:10:35;;;;;;;22.60;14.02;;;5.20;99.90;;;;;;6976111;28;20399;-67
2020/12/14 07:13:56;;;;;;;21.05;13.20;;;5.20;99.90;;;;;;6960832;28;20402;-67
2020/12/14 07:17:27;;;;;;;22.13;13.18;;;5.30;99.90;;;;;;6962461;28;20435;-67
2020/12/14 07:20:51;;;;;;;20.70;12.88;;;5.20;99.90;;;;;;6960624;28;20407;-67
2020/12/14 07:24:12;;;;;;;21.17;12.98;;;5.30;99.90;;;;;;6954119;28;20424;-67
2020/12/14 07:28:04;;;;;;;20.20;12.60;;;5.30;99.90;;;;;;6964750;28;20943;-65
2020/12/14 07:31:26;;;;;;;19.20;12.23;;;5.20;99.90;;;;;;6977362;28;20438;-66
2020/12/14 07:34:52;;;;;;;19.47;12.20;;;5.20;99.90;;;;;;6951098;28;20487;-66
2020/12/14 07:38:13;;;;;;;20.02;12.15;;;5.20;99.90;;;;;;6952191;28;20515;-67
2020/12/14 07:41:34;;;;;;;19.10;12.00;;;5.30;99.90;;;;;;6965715;28;20738;-66
2020/12/14 07:45:20;;;;;;;19.70;11.80;;;5.30;99.90;;;;;;6950920;28;20413;-67
2020/12/14 07:48:41;;;;;;;18.88;12.18;;;5.30;99.90;;;;;;6971027;28;20401;-66
2020/12/14 07:52:02;;;;;;;16.98;10.77;;;5.40;99.90;;;;;;6953483;28;20945;-66
2020/12/14 07:55:26;;;;;;;17.27;11.40;;;5.50;99.90;;;;;;6958882;28;20445;-66
2020/12/14 07:58:48;;;;;;;19.15;11.95;;;5.50;99.90;;;;;;6965839;28;20871;-67
2020/12/14 08:02:09;;;;;;;17.13;11.10;;;5.50;99.90;;;;;;6956834;28;20934;-66
2020/12/14 08:05:30;;;;;;;17.60;11.20;;;5.50;99.90;;;;;;6959631;28;20415;-66
2020/12/14 08:08:51;;;;;;;16.75;10.90;;;5.60;99.90;;;;;;6955438;28;20984;-66
2020/12/14 08:12:13;;;;;;;15.90;10.43;;;5.60;99.90;;;;;;6957900;28;20412;-67
2020/12/14 08:15:35;;;;;;;15.50;10.00;;;5.60;99.90;;;;;;6954762;28;20739;-65
2020/12/14 08:18:56;;;;;;;14.02;9.93;;;5.70;99.90;;;;;;6962254;28;20801;-65
2020/12/14 08:22:17;;;;;;;17.85;10.50;;;5.80;99.90;;;;;;6958316;28;20813;-66
2020/12/14 08:25:44;;;;;;;14.88;10.02;;;5.80;99.90;;;;;;6969075;28;20426;-65
2020/12/14 08:29:05;;;;;;;15.60;10.10;;;5.80;99.90;;;;;;6960355;28;20388;-65
2020/12/14 08:32:26;;;;;;;14.07;9.23;;;5.80;99.90;;;;;;6957840;28;20426;-65
2020/12/14 08:35:49;;;;;;;14.33;9.60;;;5.90;99.90;;;;;;6957256;28;20406;-65
2020/12/14 08:39:13;;;;;;;13.80;9.50;;;5.90;99.90;;;;;;6969140;28;20403;-67
2020/12/14 08:42:34;;;;;;;12.95;8.88;;;6.00;99.90;;;;;;6949894;28;20402;-67
2020/12/14 08:46:02;;;;;;;12.70;8.80;;;6.10;99.90;;;;;;6946558;28;20488;-66
2020/12/14 08:49:23;;;;;;;15.15;9.05;;;6.20;99.90;;;;;;6974074;28;20434;-66
2020/12/14 08:52:56;;;;;;;14.02;9.07;;;6.20;99.90;;;;;;6960216;28;20399;-67
2020/12/14 08:56:23;;;;;;;13.13;8.43;;;6.30;99.90;;;;;;6967586;28;20909;-67
2020/12/14 08:59:43;;;;;;;13.65;8.95;;;6.30;99.90;;;;;;6973044;28;20468;-66
2020/12/14 09:03:04;;;;;;;13.87;9.43;;;6.40;99.90;;;;;;6952306;28;20412;-67
2020/12/14 09:06:36;;;;;;;13.73;8.90;;;6.40;99.90;;;;;;6953152;28;20520;-66
2020/12/14 09:09:57;;;;;;;14.25;9.60;;;6.40;99.90;;;;;;6963757;28;20869;-66
2020/12/14 09:13:18;;;;;;;13.18;8.98;;;6.40;99.90;;;;;;6951974;28;20411;-66
2020/12/14 09:16:48;;;;;;;14.40;9.90;;;6.30;99.90;;;;;;6955744;28;20490;-66
2020/12/14 09:20:09;;;;;;;14.93;9.27;;;6.40;99.90;;;;;;6972019;28;20767;-67
2020/12/14 09:23:31;;;;;;;12.00;8.70;;;6.40;99.90;;;;;;6952704;28;20440;-67
2020/12/14 09:27:00;;;;;;;16.50;11.95;;;6.40;99.90;;;;;;6976180;28;20411;-67
2020/12/14 09:30:21;;;;;;;13.27;9.55;;;6.50;99.90;;;;;;6971464;28;20397;-67
2020/12/14 09:33:42;;;;;;;16.88;10.48;;;6.60;99.90;;;;;;6968546;28;20443;-68
2020/12/14 09:37:05;;;;;;;20.50;13.67;;;6.70;99.90;;;;;;6951940;28;20501;-66
2020/12/14 09:40:26;;;;;;;13.88;9.40;;;6.60;99.90;;;;;;6955262;28;20468;-67
2020/12/14 09:43:46;;;;;;;13.50;8.70;;;6.70;99.90;;;;;;6956659;28;20408;-67
2020/12/14 09:47:09;;;;;;;12.50;8.80;;;6.60;99.90;;;;;;6949806;28;20413;-68
2020/12/14 09:50:30;;;;;;;12.20;8.20;;;6.80;99.90;;;;;;6973606;28;20407;-67
2020/12/14 09:53:51;;;;;;;10.90;7.75;;;6.80;99.90;;;;;;6947178;28;20403;-67
2020/12/14 09:57:12;;;;;;;9.82;7.10;;;6.90;99.90;;;;;;6963100;28;20404;-67
2020/12/14 10:00:33;;;;;;;10.60;7.20;;;6.90;99.90;;;;;;6961867;28;20486;-67
2020/12/14 10:03:54;;;;;;;10.80;7.77;;;6.90;99.90;;;;;;6955465;28;20407;-68
2020/12/14 10:07:15;;;;;;;11.57;7.25;;;6.90;99.90;;;;;;6955378;28;20779;-68
2020/12/14 10:10:36;;;;;;;10.35;7.30;;;7.00;99.90;;;;;;6970730;28;20458;-67
2020/12/14 10:13:57;;;;;;;10.23;7.10;;;7.10;99.90;;;;;;6951626;28;20471;-68
2020/12/14 10:17:18;;;;;;;10.60;7.20;;;7.00;99.90;;;;;;6974302;28;20677;-67
2020/12/14 10:20:39;;;;;;;8.85;6.80;;;7.20;99.90;;;;;;6963839;28;20440;-67
2020/12/14 10:23:59;;;;;;;9.73;6.70;;;7.30;99.90;;;;;;6957588;28;20734;-67
2020/12/14 10:27:20;;;;;;;7.70;5.72;;;7.30;99.90;;;;;;6969272;28;20502;-67
2020/12/14 10:30:41;;;;;;;8.63;6.10;;;7.40;99.90;;;;;;6972512;28;20399;-67
2020/12/14 10:34:03;;;;;;;9.57;6.32;;;7.30;99.90;;;;;;6956173;28;20491;-67
2020/12/14 10:37:24;;;;;;;9.10;6.05;;;7.30;99.90;;;;;;6973177;28;20408;-65
2020/12/14 10:40:58;;;;;;;8.20;5.80;;;7.20;99.90;;;;;;6963113;28;20892;-66
2020/12/14 10:44:19;;;;;;;8.20;5.88;;;7.30;99.90;;;;;;6965947;28;20393;-67
2020/12/14 10:47:40;;;;;;;9.05;5.85;;;7.20;99.90;;;;;;6954500;28;20410;-66
2020/12/14 10:51:01;;;;;;;8.20;5.93;;;7.20;99.90;;;;;;6978635;28;20407;-67
2020/12/14 10:54:22;;;;;;;8.97;6.00;;;7.10;99.90;;;;;;6955729;28;20527;-66
2020/12/14 10:57:42;;;;;;;8.35;6.18;;;6.90;99.90;;;;;;6954253;28;20407;-65
2020/12/14 11:01:03;;;;;;;8.75;6.10;;;6.70;99.90;;;;;;6974179;28;20407;-67
2020/12/14 11:04:24;;;;;;;9.37;6.20;;;6.70;99.90;;;;;;6962806;28;20395;-66
2020/12/14 11:07:45;;;;;;;9.80;6.60;;;6.70;99.90;;;;;;6978534;28;20477;-66
2020/12/14 11:11:06;;;;;;;11.10;6.60;;;6.70;99.90;;;;;;6961286;28;20454;-66
2020/12/14 11:14:27;;;;;;;10.27;6.70;;;6.60;99.90;;;;;;6959682;28;20954;-65
2020/12/14 11:18:03;;;;;;;10.63;7.03;;;6.60;99.90;;;;;;6975328;28;20395;-66
2020/12/14 11:21:23;;;;;;;9.10;6.50;;;6.40;99.90;;;;;;6976556;28;20434;-66
2020/12/14 11:25:05;;;;;;;10.00;7.03;;;6.40;99.90;;;;;;6967054;28;20392;-67
2020/12/14 11:28:27;;;;;;;10.70;7.30;;;6.40;99.90;;;;;;6953297;28;20404;-67
2020/12/14 11:31:50;;;;;;;11.63;7.20;;;6.30;99.90;;;;;;6971931;28;20506;-67
2020/12/14 11:35:11;;;;;;;10.35;6.80;;;6.40;99.90;;;;;;6952485;28;20427;-67
2020/12/14 11:38:32;;;;;;;11.40;7.00;;;6.30;99.90;;;;;;6975447;28;20405;-67
2020/12/14 11:41:53;;;;;;;10.50;6.70;;;6.30;99.90;;;;;;6954481;28;21008;-67
2020/12/14 11:45:14;;;;;;;11.00;6.83;;;6.30;99.90;;;;;;6976224;28;20435;-67
2020/12/14 11:48:35;;;;;;;10.70;6.20;;;6.40;99.90;;;;;;6977501;28;20446;-67
2020/12/14 11:51:56;;;;;;;11.13;6.80;;;6.30;99.90;;;;;;6978323;28;20467;-67
2020/12/14 11:55:16;;;;;;;10.00;6.57;;;6.30;99.90;;;;;;6977177;28;20391;-67
2020/12/14 11:58:37;;;;;;;9.35;7.00;;;6.30;99.90;;;;;;6970044;28;21035;-67
2020/12/14 12:01:58;;;;;;;9.47;6.50;;;6.40;99.90;;;;;;6953373;28;20385;-67
2020/12/14 12:05:19;;;;;;;10.98;6.85;;;6.40;99.90;;;;;;6969724;28;20479;-67
2020/12/14 12:08:40;;;;;;;10.40;7.00;;;6.40;99.90;;;;;;6953023;28;20490;-67
2020/12/14 12:12:01;;;;;;;9.57;6.60;;;6.40;99.90;;;;;;6956810;28;20400;-67
2020/12/14 12:15:22;;;;;;;9.88;6.70;;;6.60;99.90;;;;;;6958082;28;20395;-67
2020/12/14 12:18:48;;;;;;;10.85;6.97;;;6.50;99.90;;;;;;6969883;28;20395;-66
2020/12/14 12:22:09;;;;;;;10.05;6.40;;;6.70;99.90;;;;;;6951650;28;20508;-67
2020/12/14 12:25:30;;;;;;;9.63;6.78;;;6.80;99.90;;;;;;6973313;28;20415;-66
2020/12/14 12:28:51;;;;;;;9.60;6.37;;;6.80;99.90;;;;;;6955371;28;20388;-67
2020/12/14 12:32:12;;;;;;;11.80;6.40;;;6.80;99.90;;;;;;6953295;28;21344;-67
2020/12/14 12:35:33;;;;;;;10.00;6.20;;;6.90;99.90;;;;;;6968569;28;20459;-66
2020/12/14 12:38:54;;;;;;;9.40;6.10;;;6.90;99.90;;;;;;6968203;28;20743;-66
2020/12/14 12:42:17;;;;;;;9.37;6.00;;;6.90;99.90;;;;;;6972786;28;20760;-66
2020/12/14 12:45:37;;;;;;;8.00;5.70;;;7.00;99.90;;;;;;6967501;28;20425;-65
2020/12/14 12:48:58;;;;;;;9.38;5.70;;;7.10;99.90;;;;;;6976295;28;20474;-66
2020/12/14 12:52:20;;;;;;;9.80;5.70;;;7.10;99.90;;;;;;6959250;28;20957;-66
2020/12/14 12:55:42;;;;;;;9.70;5.80;;;7.10;99.90;;;;;;6959125;28;20419;-66
2020/12/14 12:59:03;;;;;;;9.82;5.95;;;7.00;99.90;;;;;;6959545;28;20402;-65
2020/12/14 13:02:25;;;;;;;8.45;5.70;;;7.00;99.90;;;;;;6958629;28;20887;-65
2020/12/14 13:05:47;;;;;;;8.67;5.50;;;7.00;99.90;;;;;;6974472;28;20420;-66
2020/12/14 13:09:08;;;;;;;8.40;5.45;;;7.10;99.90;;;;;;6957650;28;20410;-67
2020/12/14 13:12:29;;;;;;;7.60;5.40;;;7.10;99.90;;;;;;6986282;28;20397;-66
2020/12/14 13:15:50;;;;;;;10.40;5.83;;;7.10;99.90;;;;;;6958865;28;20415;-67
2020/12/14 13:19:11;;;;;;;7.63;5.50;;;7.20;99.90;;;;;;6956254;28;20832;-67
2020/12/14 13:22:32;;;;;;;8.50;5.50;;;7.20;99.90;;;;;;6962009;28;20922;-67
2020/12/14 13:25:53;;;;;;;9.10;5.73;;;7.30;99.90;;;;;;6963504;28;20464;-66
2020/12/14 13:29:16;;;;;;;8.73;5.60;;;7.30;99.90;;;;;;6964975;28;20474;-66
2020/12/14 13:32:36;;;;;;;8.23;5.50;;;7.40;99.90;;;;;;6957182;28;20416;-66
2020/12/14 13:35:57;;;;;;;8.15;5.20;;;7.30;99.90;;;;;;6963407;28;20412;-66
2020/12/14 13:39:19;;;;;;;7.03;5.30;;;7.20;99.90;;;;;;6953158;28;20488;-67
2020/12/14 13:42:40;;;;;;;7.45;5.45;;;7.30;99.90;;;;;;6961368;28;20403;-67
2020/12/14 13:46:01;;;;;;;8.00;5.10;;;7.40;99.90;;;;;;6953845;28;20943;-67
2020/12/14 13:49:22;;;;;;;8.45;5.35;;;7.40;99.90;;;;;;6959117;28;20401;-67
2020/12/14 13:52:43;;;;;;;7.93;4.90;;;7.40;99.90;;;;;;6978138;28;20766;-67
2020/12/14 13:56:03;;;;;;;6.60;4.80;;;7.40;99.90;;;;;;6953470;28;20408;-67
2020/12/14 13:59:24;;;;;;;7.78;5.22;;;7.30;99.90;;;;;;6976849;28;20823;-67
2020/12/14 14:02:45;;;;;;;7.40;4.95;;;7.40;99.90;;;;;;6972595;28;20830;-67
2020/12/14 14:06:10;;;;;;;8.15;5.25;;;7.40;99.90;;;;;;6962298;28;20767;-68
2020/12/14 14:09:32;;;;;;;7.70;4.80;;;7.50;99.90;;;;;;6953205;28;20454;-67
2020/12/14 14:12:52;;;;;;;8.60;5.00;;;7.50;99.90;;;;;;6962943;28;20469;-67
2020/12/14 14:16:13;;;;;;;7.80;4.90;;;7.60;99.90;;;;;;6960680;28;20404;-68
2020/12/14 14:19:34;;;;;;;8.30;4.80;;;7.60;99.90;;;;;;6978934;28;20457;-67
2020/12/14 14:22:55;;;;;;;6.70;4.90;;;7.60;99.90;;;;;;6962470;28;20498;-68
2020/12/14 14:26:16;;;;;;;7.57;4.72;;;7.60;99.90;;;;;;6963598;28;20415;-68
2020/12/14 14:29:37;;;;;;;6.78;4.90;;;7.50;99.90;;;;;;6962227;28;20819;-67
2020/12/14 14:32:58;;;;;;;7.43;4.80;;;7.60;99.90;;;;;;6958682;28;20748;-68
2020/12/14 14:36:19;;;;;;;7.93;4.60;;;7.70;99.90;;;;;;6975739;28;20407;-67
2020/12/14 14:39:39;;;;;;;6.80;4.40;;;7.70;99.90;;;;;;6978645;28;20411;-68
2020/12/14 14:43:00;;;;;;;7.13;4.50;;;7.80;99.90;;;;;;6961403;28;20427;-67
2020/12/14 14:46:21;;;;;;;7.07;4.70;;;7.70;99.90;;;;;;6953246;28;20913;-68
2020/12/14 14:49:42;;;;;;;7.47;4.80;;;7.70;99.90;;;;;;6964616;28;20430;-67
2020/12/14 14:53:03;;;;;;;6.88;4.60;;;7.70;99.90;;;;;;6956699;28;20503;-68
2020/12/14 14:56:25;;;;;;;6.60;4.60;;;7.60;99.90;;;;;;6960282;28;20396;-66
2020/12/14 14:59:46;;;;;;;6.80;4.35;;;7.60;99.90;;;;;;6956665;28;20933;-68
2020/12/14 15:03:10;;;;;;;8.10;5.00;;;7.70;99.90;;;;;;6976727;28;20445;-68
2020/12/14 15:06:33;;;;;;;6.00;4.50;;;7.80;99.90;;;;;;6961720;28;20419;-67
2020/12/14 15:09:54;;;;;;;7.50;4.40;;;7.80;99.90;;;;;;6953328;28;20450;-67
2020/12/14 15:13:15;;;;;;;6.60;4.55;;;7.80;99.90;;;;;;6955522;28;20438;-67
2020/12/14 15:16:37;;;;;;;8.05;4.95;;;7.80;99.90;;;;;;6978964;28;21820;-67
2020/12/14 15:19:57;;;;;;;7.97;4.95;;;7.90;99.90;;;;;;6982146;28;20505;-67
2020/12/14 15:23:18;;;;;;;7.50;4.90;;;7.90;99.90;;;;;;6965127;28;20412;-66
2020/12/14 15:26:39;;;;;;;7.20;4.43;;;7.90;99.90;;;;;;6957373;28;21090;-68
2020/12/14 15:30:00;;;;;;;7.07;4.70;;;7.90;99.90;;;;;;6969482;28;20411;-68
2020/12/14 15:33:21;;;;;;;7.82;4.72;;;7.90;99.90;;;;;;6960855;28;20782;-67
2020/12/14 15:36:42;;;;;;;7.38;4.80;;;7.90;99.90;;;;;;6977545;28;20424;-67
2020/12/14 15:40:03;;;;;;;7.17;4.90;;;7.90;99.90;;;;;;6960464;28;20438;-67
2020/12/14 15:43:24;;;;;;;7.53;4.53;;;7.90;99.90;;;;;;6960808;28;20404;-68
2020/12/14 15:46:45;;;;;;;7.50;4.80;;;7.90;99.90;;;;;;6951686;28;20875;-67
2020/12/14 15:50:06;;;;;;;8.80;5.03;;;7.80;99.90;;;;;;6976337;28;20817;-59
2020/12/14 15:53:27;;;;;;;5.83;4.40;;;8.00;99.90;;;;;;6959293;28;20899;-57
2020/12/14 15:56:49;;;;;;;6.90;4.50;;;8.00;99.90;;;;;;6958723;28;20408;-60
2020/12/14 16:00:11;;;;;;;6.10;4.40;;;8.20;99.90;;;;;;6960676;28;20909;-60
2020/12/14 16:05:00;;;;;;;7.93;4.78;;;8.20;99.90;;;;;;7116850;27;20479;-67
2020/12/14 16:08:21;;;;;;;7.27;4.87;;;8.30;99.90;;;;;;7059258;27;20873;-67
2020/12/14 16:11:45;;;;;;;6.20;4.60;;;8.40;99.90;;;;;;7049675;27;20382;-67
2020/12/14 16:15:06;;;;;;;6.78;4.80;;;8.30;99.90;;;;;;7043175;27;21055;-67
2020/12/14 16:18:27;;;;;;;8.30;4.90;;;8.30;99.90;;;;;;7057674;27;20405;-67
2020/12/14 16:21:48;;;;;;;6.55;4.80;;;8.40;99.90;;;;;;7082093;27;20396;-68
2020/12/14 16:25:10;;;;;;;6.57;4.80;;;8.40;99.90;;;;;;7091874;27;20469;-67
2020/12/14 16:28:31;;;;;;;6.90;4.65;;;8.30;99.90;;;;;;7064854;27;20772;-67
2020/12/14 16:31:54;;;;;;;6.88;4.70;;;8.30;99.90;;;;;;7046195;27;20425;-67
2020/12/14 16:35:16;;;;;;;6.60;4.97;;;8.30;99.90;;;;;;7067078;27;20480;-67
2020/12/14 16:38:37;;;;;;;7.00;4.50;;;8.30;99.90;;;;;;7081077;27;20455;-66
2020/12/14 16:41:58;;;;;;;6.50;4.73;;;8.30;99.90;;;;;;7089272;27;20838;-66
2020/12/14 16:45:19;;;;;;;8.18;4.82;;;8.40;99.90;;;;;;7068650;27;20398;-66
2020/12/14 16:48:41;;;;;;;7.45;4.60;;;8.30;99.90;;;;;;7051727;27;20406;-67
2020/12/14 16:52:03;;;;;;;6.70;4.90;;;8.40;99.90;;;;;;7053529;27;20710;-69
2020/12/14 16:55:23;;;;;;;7.30;4.53;;;8.40;99.90;;;;;;7061758;27;20910;-68
2020/12/14 16:58:45;;;;;;;7.13;4.70;;;8.40;99.90;;;;;;7054006;27;20519;-67
2020/12/14 17:02:09;;;;;;;7.20;4.90;;;8.50;99.90;;;;;;7065750;27;20906;-66
2020/12/14 17:05:30;;;;;;;6.93;4.82;;;8.50;99.90;;;;;;7050333;27;20919;-66
2020/12/14 17:08:52;;;;;;;7.88;4.70;;;8.40;99.90;;;;;;7075139;27;20420;-67
2020/12/14 17:12:12;;;;;;;6.45;4.80;;;8.40;99.90;;;;;;7066464;27;20402;-67
2020/12/14 17:15:33;;;;;;;7.90;5.20;;;8.50;99.90;;;;;;7035070;27;20417;-67
2020/12/14 17:18:54;;;;;;;8.30;5.00;;;8.50;99.90;;;;;;7022164;27;20895;-67
2020/12/14 17:22:18;;;;;;;7.43;5.07;;;8.50;99.90;;;;;;7026842;27;20406;-67
2020/12/14 17:25:38;;;;;;;7.33;5.10;;;8.40;99.90;;;;;;7043248;27;20943;-67
2020/12/14 17:29:00;;;;;;;7.30;5.40;;;8.40;99.90;;;;;;7036152;27;20426;-67
2020/12/14 17:32:23;;;;;;;9.37;5.30;;;8.40;99.90;;;;;;7038580;27;20394;-67